| time (UTC) | temp C | wind direction | speed KPH | gust KPH | rain 1hr cm | rain 24hr cm | rain mn cm | humidity % | barometer mb |
| 20260510190057 | 21 | 27 | 11.3 | 22.5 | 0.00 | 0.00 | 0.00 | 39 | 1020.3 |
| 20260510184558 | 20 | 26 | 14.5 | 22.5 | 0.00 | 0.00 | 0.00 | 41 | 1020.2 |
| 20260510183055 | 21 | 342 | 12.9 | 19.3 | 0.00 | 0.00 | 0.00 | 43 | 1020.3 |
| 20260510181552 | 20 | 36 | 9.7 | 22.5 | 0.00 | 0.00 | 0.00 | 42 | 1020.2 |
| 20260510180109 | 20 | 24 | 12.9 | 22.5 | 0.00 | 0.00 | 0.00 | 44 | 1019.8 |
| 20260510174552 | 20 | 355 | 11.3 | 20.9 | 0.00 | 0.00 | 0.00 | 42 | 1019.7 |
| 20260510173057 | 20 | 46 | 12.9 | 24.1 | 0.00 | 0.00 | 0.00 | 40 | 1019.6 |
| 20260510171600 | 19 | 30 | 14.5 | 25.7 | 0.00 | 0.00 | 0.00 | 40 | 1019.6 |
| 20260510170055 | 19 | 32 | 17.7 | 24.1 | 0.00 | 0.00 | 0.00 | 42 | 1019.5 |
| 20260510164558 | 19 | 51 | 12.9 | 29.0 | 0.00 | 0.00 | 0.00 | 42 | 1019.4 |
| 20260510163116 | 19 | 9 | 16.1 | 29.0 | 0.00 | 0.00 | 0.00 | 43 | 1019.4 |
| 20260510161601 | 18 | 51 | 16.1 | 25.7 | 0.00 | 0.00 | 0.00 | 43 | 1019.4 |
| 20260510154555 | 17 | 41 | 11.3 | 24.1 | 0.00 | 0.00 | 0.00 | 46 | 1019.3 |
| 20260510153056 | 17 | 66 | 11.3 | 29.0 | 0.00 | 0.00 | 0.00 | 48 | 1019.2 |
| 20260510151552 | 17 | 43 | 16.1 | 25.7 | 0.00 | 0.00 | 0.00 | 46 | 1019.4 |
| 20260510144602 | 17 | 29 | 9.7 | 25.7 | 0.00 | 0.00 | 0.00 | 52 | 1019.6 |
| 20260510143108 | 16 | 29 | 11.3 | 25.7 | 0.00 | 0.00 | 0.00 | 54 | 1019.6 |
| 20260510141551 | 16 | 24 | 16.1 | 27.4 | 0.00 | 0.00 | 0.00 | 52 | 1019.2 |
| 20260510140053 | 16 | 17 | 12.9 | 22.5 | 0.00 | 0.00 | 0.00 | 57 | 1019.2 |
| 20260510134600 | 15 | 43 | 16.1 | 27.4 | 0.00 | 0.00 | 0.00 | 56 | 1018.5 |
| 20260510133052 | 15 | 36 | 11.3 | 22.5 | 0.00 | 0.00 | 0.00 | 62 | 1018.2 |
| 20260510131554 | 15 | 19 | 14.5 | 25.7 | 0.00 | 0.00 | 0.00 | 63 | 1017.9 |
| 20260510130058 | 15 | 28 | 9.7 | 20.9 | 0.00 | 0.00 | 0.00 | 68 | 1017.7 |
| 20260510124556 | 15 | 23 | 11.3 | 24.1 | 0.00 | 0.00 | 0.00 | 71 | 1017.5 |
| 20260510123053 | 14 | 36 | 8.0 | 14.5 | 0.00 | 0.00 | 0.00 | 77 | 1017.3 |
| 20260510121552 | 13 | 27 | 8.0 | 16.1 | 0.00 | 0.00 | 0.00 | 82 | 1017.0 |
| 20260510120053 | 13 | 39 | 9.7 | 19.3 | 0.00 | 0.00 | 0.00 | 84 | 1016.7 |
| 20260510114555 | 13 | 32 | 8.0 | 17.7 | 0.00 | 0.00 | 0.00 | 85 | 1016.5 |
| 20260510113056 | 13 | 40 | 6.4 | 12.9 | 0.00 | 0.00 | 0.00 | 86 | 1016.3 |
| 20260510111557 | 13 | 30 | 6.4 | 12.9 | 0.00 | 0.00 | 0.00 | 86 | 1016.0 |
| 20260510110050 | 13 | 28 | 6.4 | 11.3 | 0.00 | 0.00 | 0.00 | 86 | 1016.2 |
| 20260510104558 | 13 | 20 | 4.8 | 12.9 | 0.00 | 0.00 | 0.00 | 85 | 1016.1 |
| 20260510103053 | 14 | 24 | 6.4 | 16.1 | 0.00 | 0.00 | 0.00 | 85 | 1015.8 |
| 20260510101552 | 14 | 13 | 6.4 | 14.5 | 0.00 | 0.00 | 0.00 | 84 | 1015.5 |
| 20260510100051 | 14 | 31 | 4.8 | 8.0 | 0.00 | 0.00 | 0.00 | 84 | 1015.2 |
| 20260510094552 | 14 | 34 | 3.2 | 12.9 | 0.00 | 0.03 | 0.00 | 84 | 1015.0 |
| 20260510093106 | 15 | 14 | 6.4 | 12.9 | 0.00 | 0.03 | 0.00 | 82 | 1014.8 |
| 20260510091557 | 15 | 25 | 6.4 | 14.5 | 0.00 | 0.03 | 0.00 | 81 | 1014.5 |
| 20260510090052 | 15 | 42 | 4.8 | 9.7 | 0.00 | 0.03 | 0.00 | 80 | 1014.3 |
| 20260510084553 | 15 | 31 | 3.2 | 12.9 | 0.00 | 0.03 | 0.00 | 79 | 1014.2 |
| 20260510083055 | 15 | 36 | 1.6 | 6.4 | 0.00 | 0.03 | 0.00 | 79 | 1014.2 |
| 20260510081621 | 15 | 36 | 4.8 | 8.0 | 0.00 | 0.03 | 0.00 | 78 | 1014.0 |
| 20260510080051 | 16 | 0 | 0.0 | 6.4 | 0.00 | 0.03 | 0.00 | 76 | 1013.9 |
| 20260510074553 | 16 | 61 | 3.2 | 9.7 | 0.00 | 0.03 | 0.00 | 76 | 1013.6 |
| 20260510073101 | 16 | 24 | 4.8 | 11.3 | 0.00 | 0.03 | 0.00 | 75 | 1013.7 |
| 20260510071558 | 16 | 34 | 4.8 | 8.0 | 0.00 | 0.03 | 0.00 | 75 | 1013.8 |
| 20260510070051 | 15 | 360 | 1.6 | 6.4 | 0.00 | 0.03 | 0.00 | 77 | 1013.9 |
| 20260510064559 | 15 | 0 | 0.0 | 0.0 | 0.00 | 0.03 | 0.00 | 80 | 1013.4 |
| 20260510063052 | 15 | 0 | 0.0 | 0.0 | 0.00 | 0.03 | 0.00 | 81 | 1013.4 |
| 20260510061554 | 16 | 0 | 0.0 | 0.0 | 0.00 | 0.03 | 0.00 | 80 | 1013.4 |
| 20260510060054 | 16 | 0 | 0.0 | 0.0 | 0.00 | 0.03 | 0.00 | 79 | 1013.3 |
| 20260510054554 | 16 | 0 | 0.0 | 0.0 | 0.00 | 0.05 | 0.00 | 77 | 1013.1 |
| 20260510053115 | 16 | 0 | 0.0 | 0.0 | 0.00 | 0.05 | 0.00 | 77 | 1013.3 |
| 20260510051606 | 17 | 0 | 0.0 | 0.0 | 0.00 | 0.05 | 0.00 | 75 | 1013.5 |
| 20260510050110 | 17 | 0 | 0.0 | 0.0 | 0.00 | 0.05 | 0.00 | 74 | 1013.3 |
| 20260510044607 | 17 | 0 | 0.0 | 0.0 | 0.00 | 0.05 | 0.05 | 71 | 1012.9 |
| 20260510041605 | 18 | 0 | 0.0 | 6.4 | 0.00 | 0.05 | 0.05 | 68 | 1012.9 |
| 20260510040057 | 17 | 360 | 4.8 | 16.1 | 0.00 | 0.05 | 0.05 | 69 | 1012.8 |
| 20260510034557 | 17 | 333 | 12.9 | 19.3 | 0.00 | 0.05 | 0.05 | 71 | 1012.4 |
| 20260510033108 | 17 | 0 | 0.0 | 0.0 | 0.00 | 0.05 | 0.05 | 74 | 1011.9 |
| 20260510031552 | 17 | 0 | 0.0 | 0.0 | 0.00 | 0.05 | 0.05 | 73 | 1011.6 |
| 20260510030112 | 17 | 0 | 0.0 | 0.0 | 0.00 | 0.05 | 0.05 | 73 | 1011.7 |
| 20260510024555 | 18 | 0 | 0.0 | 0.0 | 0.00 | 0.41 | 0.05 | 73 | 1011.5 |
| 20260510023055 | 18 | 0 | 0.0 | 0.0 | 0.00 | 0.41 | 0.05 | 72 | 1011.1 |
| 20260510021555 | 19 | 0 | 0.0 | 0.0 | 0.00 | 0.41 | 0.05 | 70 | 1010.8 |
| 20260510020054 | 20 | 0 | 0.0 | 0.0 | 0.00 | 0.41 | 0.05 | 66 | 1010.3 |
| 20260510014602 | 21 | 0 | 0.0 | 0.0 | 0.00 | 0.94 | 0.05 | 67 | 1009.9 |
| 20260510013055 | 22 | 0 | 0.0 | 0.0 | 0.00 | 0.94 | 0.05 | 63 | 1009.9 |
| 20260510011555 | 23 | 0 | 0.0 | 0.0 | 0.00 | 0.94 | 0.05 | 56 | 1009.6 |
| 20260510010057 | 23 | 0 | 0.0 | 0.0 | 0.00 | 0.94 | 0.05 | 53 | 1009.5 |
| 20260510004553 | 24 | 0 | 0.0 | 8.0 | 0.00 | 0.94 | 0.05 | 51 | 1009.3 |
| 20260510003102 | 25 | 170 | 3.2 | 8.0 | 0.00 | 0.94 | 0.05 | 50 | 1009.3 |
| 20260510001552 | 25 | 165 | 1.6 | 6.4 | 0.00 | 0.94 | 0.05 | 47 | 1009.3 |
| 20260510000057 | 25 | 200 | 0.0 | 3.2 | 0.00 | 0.94 | 0.05 | 46 | 1009.3 |
| 20260509234558 | 26 | 0 | 0.0 | 4.8 | 0.00 | 0.94 | 0.05 | 45 | 1009.3 |
| 20260509233101 | 26 | 220 | 4.8 | 11.3 | 0.00 | 0.94 | 0.05 | 43 | 1009.3 |
| 20260509231555 | 27 | 223 | 4.8 | 11.3 | 0.00 | 0.94 | 0.05 | 41 | 1009.3 |
| 20260509230053 | 26 | 0 | 4.8 | 14.5 | 0.00 | 0.94 | 0.05 | 40 | 1009.2 |
| 20260509224553 | 26 | 227 | 4.8 | 16.1 | 0.00 | 0.94 | 0.05 | 37 | 1009.2 |
| 20260509223058 | 27 | 259 | 4.8 | 16.1 | 0.00 | 0.94 | 0.05 | 34 | 1009.2 |
| 20260509221549 | 28 | 235 | 6.4 | 12.9 | 0.00 | 0.94 | 0.05 | 33 | 1009.2 |
| 20260509220051 | 28 | 239 | 6.4 | 12.9 | 0.00 | 0.94 | 0.05 | 32 | 1009.2 |
| 20260509214553 | 28 | 235 | 11.3 | 17.7 | 0.00 | 0.94 | 0.05 | 31 | 1009.2 |
| 20260509213055 | 28 | 278 | 6.4 | 20.9 | 0.00 | 0.94 | 0.05 | 33 | 1009.3 |
| 20260509211553 | 28 | 244 | 8.0 | 19.3 | 0.00 | 0.94 | 0.05 | 37 | 1009.5 |
| 20260509210055 | 28 | 295 | 4.8 | 19.3 | 0.00 | 0.94 | 0.05 | 33 | 1009.5 |
| 20260509204556 | 28 | 250 | 9.7 | 20.9 | 0.00 | 0.94 | 0.05 | 35 | 1009.8 |
| 20260509203106 | 28 | 277 | 8.0 | 20.9 | 0.00 | 0.94 | 0.05 | 38 | 1009.9 |
| 20260509201605 | 27 | 245 | 16.1 | 24.1 | 0.00 | 0.94 | 0.05 | 38 | 1010.1 |
| 20260509200106 | 27 | 267 | 14.5 | 25.7 | 0.00 | 0.94 | 0.05 | 37 | 1010.2 |
| 20260509194558 | 27 | 225 | 14.5 | 22.5 | 0.00 | 0.94 | 0.05 | 38 | 1010.1 |
| 20260509193110 | 27 | 267 | 16.1 | 27.4 | 0.00 | 0.94 | 0.05 | 35 | 1010.2 |
| 20260509191600 | 27 | 246 | 9.7 | 22.5 | 0.00 | 0.94 | 0.05 | 36 | 1010.3 |